createdAt,value
2018-06-05T00:01:01.008Z,19.15
2018-06-05T00:03:29.723Z,19.14
2018-06-05T00:05:58.596Z,19.10
2018-06-05T00:08:27.375Z,19.04
2018-06-05T00:10:56.165Z,18.99
2018-06-05T00:13:24.873Z,18.95
2018-06-05T00:15:53.611Z,18.86
2018-06-05T00:18:22.316Z,18.74
2018-06-05T00:20:51.049Z,18.63
2018-06-05T00:23:19.705Z,18.53
2018-06-05T00:25:48.474Z,18.45
2018-06-05T00:28:17.062Z,18.41
2018-06-05T00:30:45.829Z,18.46
2018-06-05T00:33:14.483Z,18.46
2018-06-05T00:35:43.289Z,18.39
2018-06-05T00:38:12.088Z,18.36
2018-06-05T00:40:40.840Z,18.38
2018-06-05T00:43:09.707Z,18.58
2018-06-05T00:45:43.613Z,18.67
2018-06-05T00:48:12.528Z,18.71
2018-06-05T00:50:41.272Z,18.60
2018-06-05T00:53:10.151Z,18.46
2018-06-05T00:55:39.076Z,18.44
2018-06-05T00:58:07.864Z,18.43
2018-06-05T01:00:36.585Z,18.48
2018-06-05T01:03:05.579Z,18.51
2018-06-05T01:05:35.068Z,18.58
2018-06-05T01:08:03.826Z,18.61
2018-06-05T01:10:32.452Z,18.60
2018-06-05T01:13:01.181Z,18.53
2018-06-05T01:15:30.142Z,18.43
2018-06-05T01:17:58.890Z,18.34
2018-06-05T01:20:27.820Z,18.23
2018-06-05T01:22:56.779Z,18.13
2018-06-05T01:25:25.856Z,18.05
2018-06-05T01:27:54.809Z,17.99
2018-06-05T01:30:23.631Z,17.92
2018-06-05T01:32:52.281Z,17.85
2018-06-05T01:35:20.972Z,17.81
2018-06-05T01:37:49.753Z,17.81
2018-06-05T01:40:18.463Z,17.78
2018-06-05T01:42:47.429Z,17.76
2018-06-05T01:45:16.184Z,17.74
2018-06-05T01:47:45.006Z,17.72
2018-06-05T01:50:13.777Z,17.66
2018-06-05T01:52:42.460Z,17.61
2018-06-05T01:55:11.181Z,17.56
2018-06-05T01:57:39.881Z,17.55
2018-06-05T02:00:08.709Z,17.54
2018-06-05T02:02:37.386Z,17.54
2018-06-05T02:05:06.040Z,17.53
2018-06-05T02:07:34.804Z,17.50
2018-06-05T02:10:03.721Z,17.49
2018-06-05T02:12:32.365Z,17.48
2018-06-05T02:15:01.218Z,17.48
2018-06-05T02:17:30.084Z,17.51
2018-06-05T02:19:58.938Z,17.50
2018-06-05T02:22:27.768Z,17.48
2018-06-05T02:24:56.661Z,17.44
2018-06-05T02:27:25.530Z,17.43
2018-06-05T02:29:54.319Z,17.41
2018-06-05T02:32:23.238Z,17.40
2018-06-05T02:34:52.044Z,17.40
2018-06-05T02:37:21.007Z,17.38
2018-06-05T02:39:50.176Z,17.37
2018-06-05T02:42:19.041Z,17.33
2018-06-05T02:44:48.082Z,17.29
2018-06-05T02:47:16.847Z,17.27
2018-06-05T02:49:45.720Z,17.25
2018-06-05T02:52:14.611Z,17.21
2018-06-05T02:54:43.605Z,17.17
2018-06-05T02:57:12.629Z,17.15
2018-06-05T02:59:41.479Z,17.15
2018-06-05T03:02:10.722Z,17.20
2018-06-05T03:04:39.619Z,17.26
2018-06-05T03:07:08.629Z,17.30
2018-06-05T03:09:37.378Z,17.34
2018-06-05T03:12:06.158Z,17.37
2018-06-05T03:14:34.900Z,17.38
2018-06-05T03:17:03.681Z,17.43
2018-06-05T03:19:32.361Z,17.48
2018-06-05T03:22:01.161Z,17.52
2018-06-05T03:24:29.863Z,17.61
2018-06-05T03:26:58.657Z,17.61
2018-06-05T03:29:27.314Z,17.62
2018-06-05T03:31:56.053Z,17.65
2018-06-05T03:34:24.745Z,17.68
2018-06-05T03:36:53.517Z,17.66
2018-06-05T03:39:22.436Z,17.66
2018-06-05T03:41:51.053Z,17.75
2018-06-05T03:44:19.844Z,17.97
2018-06-05T03:46:48.599Z,17.99
2018-06-05T03:49:17.457Z,17.99
2018-06-05T03:51:46.473Z,17.86
2018-06-05T03:54:15.353Z,17.90
2018-06-05T03:56:44.277Z,18.01
2018-06-05T03:59:13.186Z,18.02
2018-06-05T04:01:42.560Z,17.87
2018-06-05T04:04:11.680Z,17.79
2018-06-05T04:06:40.864Z,18.00
2018-06-05T04:09:09.621Z,18.15
2018-06-05T04:11:38.523Z,18.49
2018-06-05T04:14:07.349Z,18.52
2018-06-05T04:16:36.035Z,19.20
2018-06-05T04:19:04.990Z,19.58
2018-06-05T04:21:33.789Z,19.63
2018-06-05T04:24:02.548Z,19.80
2018-06-05T04:26:31.482Z,19.70
2018-06-05T04:29:00.354Z,19.71
2018-06-05T04:31:29.253Z,19.72
2018-06-05T04:33:58.176Z,19.66
2018-06-05T04:36:26.879Z,19.54
2018-06-05T04:38:55.780Z,19.54
2018-06-05T04:41:24.472Z,19.50
2018-06-05T04:43:53.342Z,19.32
2018-06-05T04:46:22.079Z,19.53
2018-06-05T04:48:50.954Z,19.57
2018-06-05T04:51:19.673Z,20.77
2018-06-05T04:53:48.609Z,22.33
2018-06-05T04:56:17.266Z,23.23
2018-06-05T04:58:45.877Z,24.19
2018-06-05T05:01:14.708Z,24.92
2018-06-05T05:03:43.483Z,25.54
2018-06-05T05:06:12.072Z,25.95
2018-06-05T05:08:40.723Z,26.21
2018-06-05T05:11:09.472Z,26.82
2018-06-05T05:13:38.211Z,27.57
2018-06-05T05:16:06.835Z,27.56
2018-06-05T05:18:35.462Z,28.05
2018-06-05T05:21:04.114Z,28.54
2018-06-05T05:23:32.707Z,29.69
2018-06-05T05:26:01.469Z,30.08
2018-06-05T05:28:30.137Z,30.30
2018-06-05T05:30:58.800Z,30.43
2018-06-05T05:33:27.451Z,29.15
2018-06-05T05:35:56.197Z,28.84
2018-06-05T05:38:24.877Z,28.37
2018-06-05T05:40:54.038Z,27.81
2018-06-05T05:43:22.769Z,28.12
2018-06-05T05:45:51.554Z,27.92
2018-06-05T05:48:20.132Z,26.48
2018-06-05T05:50:48.895Z,24.86
2018-06-05T05:53:17.452Z,24.63
2018-06-05T05:55:46.016Z,24.19
2018-06-05T05:58:14.514Z,25.71
2018-06-05T06:00:43.173Z,25.31
2018-06-05T06:03:11.674Z,24.36
2018-06-05T06:05:40.227Z,24.16
2018-06-05T06:08:08.960Z,24.42
2018-06-05T06:10:37.504Z,24.43
2018-06-05T06:13:06.176Z,24.43
2018-06-05T06:15:34.740Z,24.53
2018-06-05T06:18:03.279Z,25.77
2018-06-05T06:20:31.795Z,25.72
2018-06-05T06:23:00.409Z,24.64
2018-06-05T06:25:28.954Z,26.06
2018-06-05T06:27:57.476Z,28.76
2018-06-05T06:30:26.810Z,30.96
2018-06-05T06:32:55.355Z,30.52
2018-06-05T06:35:23.872Z,29.67
2018-06-05T06:37:52.420Z,29.72
2018-06-05T06:40:20.916Z,29.02
2018-06-05T06:42:49.440Z,29.76
2018-06-05T06:45:24.581Z,32.80
2018-06-05T06:47:53.165Z,32.38
2018-06-05T06:50:21.684Z,31.73
2018-06-05T06:52:50.222Z,31.36
2018-06-05T06:55:18.709Z,31.04
2018-06-05T06:57:47.247Z,31.01
2018-06-05T07:00:15.761Z,30.11
2018-06-05T07:02:44.478Z,28.22
2018-06-05T07:05:13.015Z,27.28
2018-06-05T07:07:41.521Z,29.39
2018-06-05T07:10:10.044Z,31.99
2018-06-05T07:12:38.563Z,32.75
2018-06-05T07:15:07.124Z,34.33
2018-06-05T07:17:35.709Z,34.79
2018-06-05T07:20:04.242Z,35.85
2018-06-05T07:22:32.744Z,36.97
2018-06-05T07:25:01.248Z,35.60
2018-06-05T07:27:29.764Z,34.14
2018-06-05T07:29:58.281Z,34.97
2018-06-05T07:32:26.774Z,36.91
2018-06-05T07:34:55.369Z,37.54
2018-06-05T07:37:23.927Z,35.76
2018-06-05T07:39:52.424Z,34.39
2018-06-05T07:42:20.933Z,34.70
2018-06-05T07:44:49.441Z,36.01
2018-06-05T07:47:17.957Z,37.72
2018-06-05T07:49:46.477Z,37.03
2018-06-05T07:52:14.978Z,35.28
2018-06-05T07:54:43.500Z,36.38
2018-06-05T07:57:12.006Z,35.57
2018-06-05T07:59:40.557Z,35.77
2018-06-05T08:02:09.082Z,37.60
2018-06-05T08:04:37.587Z,37.44
2018-06-05T08:07:06.112Z,38.19
2018-06-05T08:09:34.592Z,39.11
2018-06-05T08:12:03.097Z,36.16
2018-06-05T08:14:31.600Z,36.16
2018-06-05T08:17:00.095Z,37.48
2018-06-05T08:19:28.583Z,38.83
2018-06-05T08:21:57.084Z,38.38
2018-06-05T08:24:25.648Z,37.81
2018-06-05T08:26:54.767Z,39.43
2018-06-05T08:29:23.293Z,39.59
2018-06-05T08:31:51.817Z,39.99
2018-06-05T08:34:20.317Z,38.53
2018-06-05T08:36:48.817Z,38.25
2018-06-05T08:39:17.311Z,38.74
2018-06-05T08:41:45.809Z,38.79
2018-06-05T08:44:14.300Z,36.61
2018-06-05T08:46:42.836Z,36.35
2018-06-05T08:49:11.345Z,36.10
2018-06-05T08:51:39.863Z,36.66
2018-06-05T08:54:08.363Z,35.30
2018-06-05T08:56:36.932Z,36.26
2018-06-05T08:59:05.532Z,36.82
2018-06-05T09:01:34.056Z,36.27
2018-06-05T09:04:02.547Z,36.38
2018-06-05T09:06:31.061Z,38.52
2018-06-05T09:08:59.585Z,39.14
2018-06-05T09:11:28.114Z,39.08
2018-06-05T09:13:56.640Z,37.28
2018-06-05T09:16:25.123Z,36.01
2018-06-05T09:18:53.640Z,35.44
2018-06-05T09:21:22.125Z,37.16
2018-06-05T09:23:50.656Z,38.91
2018-06-05T09:26:19.225Z,39.92
2018-06-05T09:28:47.769Z,38.31
2018-06-05T09:31:16.270Z,38.52
2018-06-05T09:33:44.781Z,39.94
2018-06-05T09:36:13.305Z,38.57
2018-06-05T09:38:41.838Z,36.61
2018-06-05T09:41:10.349Z,38.19
2018-06-05T09:43:38.896Z,37.21
2018-06-05T09:46:07.388Z,38.69
2018-06-05T09:48:35.902Z,39.87
2018-06-05T09:51:04.405Z,40.33
2018-06-05T09:53:32.927Z,41.01
2018-06-05T09:56:01.445Z,40.72
2018-06-05T09:58:30.055Z,39.59
2018-06-05T10:00:58.477Z,38.86
2018-06-05T10:03:27.002Z,38.68
2018-06-05T10:05:55.551Z,36.55
2018-06-05T10:08:24.040Z,35.23
2018-06-05T10:10:52.576Z,37.58
2018-06-05T10:13:21.079Z,38.80
2018-06-05T10:15:49.589Z,37.69
2018-06-05T10:18:18.099Z,39.75
2018-06-05T10:20:46.633Z,38.47
2018-06-05T10:23:15.160Z,39.48
2018-06-05T10:25:43.780Z,37.12
2018-06-05T10:28:12.441Z,35.89
2018-06-05T10:30:40.957Z,38.02
2018-06-05T10:33:09.484Z,39.73
2018-06-05T10:35:37.997Z,37.05
2018-06-05T10:38:06.701Z,38.21
2018-06-05T10:40:35.220Z,37.85
2018-06-05T10:43:03.718Z,37.39
2018-06-05T10:45:32.215Z,37.23
2018-06-05T10:48:00.708Z,39.52
2018-06-05T10:50:29.533Z,38.75
2018-06-05T10:52:58.028Z,38.59
2018-06-05T10:55:26.574Z,34.88
2018-06-05T10:57:55.080Z,36.42
2018-06-05T11:00:23.651Z,38.24
2018-06-05T11:02:52.176Z,39.05
2018-06-05T11:05:20.700Z,40.03
2018-06-05T11:07:49.221Z,40.63
2018-06-05T11:10:17.699Z,38.89
2018-06-05T11:12:46.344Z,35.99
2018-06-05T11:15:14.798Z,38.07
2018-06-05T11:17:43.341Z,37.46
2018-06-05T11:20:11.864Z,34.55
2018-06-05T11:22:40.393Z,33.48
2018-06-05T11:25:08.969Z,32.49
2018-06-05T11:27:37.504Z,30.78
2018-06-05T11:30:06.072Z,29.96
2018-06-05T11:32:34.555Z,30.74
2018-06-05T11:35:03.162Z,31.48
2018-06-05T11:37:32.237Z,32.91
2018-06-05T11:40:01.292Z,34.22
2018-06-05T11:42:30.197Z,34.69
2018-06-05T11:44:58.943Z,35.30
2018-06-05T11:47:27.617Z,34.75
2018-06-05T11:49:56.340Z,32.91
2018-06-05T11:52:25.062Z,30.54
2018-06-05T11:54:53.789Z,30.15
2018-06-05T11:57:22.573Z,30.35
2018-06-05T11:59:51.149Z,29.96
2018-06-05T12:02:19.790Z,30.09
2018-06-05T12:04:48.564Z,29.33
2018-06-05T12:07:17.528Z,28.95
2018-06-05T12:09:46.480Z,29.41
2018-06-05T12:12:15.303Z,28.94
2018-06-05T12:14:44.041Z,28.89
2018-06-05T12:17:12.773Z,29.72
2018-06-05T12:19:41.481Z,29.97
2018-06-05T12:22:10.293Z,30.10
2018-06-05T12:24:39.160Z,29.71
2018-06-05T12:27:07.877Z,29.44
2018-06-05T12:29:36.486Z,29.26
2018-06-05T12:32:05.056Z,28.86
2018-06-05T12:34:33.755Z,28.90
2018-06-05T12:37:02.375Z,29.15
2018-06-05T12:39:31.102Z,29.22
2018-06-05T12:42:00.092Z,28.97
2018-06-05T12:44:28.888Z,28.87
2018-06-05T12:46:57.569Z,29.33
2018-06-05T12:49:26.213Z,29.85
2018-06-05T12:51:55.052Z,30.04
2018-06-05T12:54:23.760Z,30.31
2018-06-05T12:56:52.665Z,30.62
2018-06-05T12:59:21.386Z,29.94
2018-06-05T13:01:50.204Z,29.42
2018-06-05T13:04:18.942Z,29.66
2018-06-05T13:06:47.655Z,30.14
2018-06-05T13:09:16.360Z,30.06
2018-06-05T13:11:45.368Z,29.29
2018-06-05T13:14:14.126Z,29.69
2018-06-05T13:16:43.015Z,30.02
2018-06-05T13:19:18.346Z,30.15
2018-06-05T13:21:47.337Z,30.53
2018-06-05T13:24:15.988Z,30.76
2018-06-05T13:26:44.754Z,31.03
2018-06-05T13:29:13.338Z,31.18
2018-06-05T13:31:42.040Z,31.22
2018-06-05T13:34:10.806Z,31.23
2018-06-05T13:36:39.956Z,30.97
2018-06-05T13:39:09.694Z,30.50
2018-06-05T13:41:38.545Z,30.13
2018-06-05T13:44:07.895Z,29.38
2018-06-05T13:46:36.713Z,29.03
2018-06-05T13:49:05.567Z,28.85
2018-06-05T13:51:34.643Z,28.79
2018-06-05T13:54:03.474Z,28.61
2018-06-05T13:56:32.401Z,28.35
2018-06-05T13:59:01.052Z,28.10
2018-06-05T14:01:29.854Z,27.95
2018-06-05T14:03:58.550Z,27.85
2018-06-05T14:06:27.332Z,27.77
2018-06-05T14:08:56.132Z,27.72
2018-06-05T14:11:25.060Z,27.53
2018-06-05T14:13:53.962Z,27.43
2018-06-05T14:16:22.802Z,27.37
2018-06-05T14:18:51.628Z,27.74
2018-06-05T14:21:20.503Z,28.10
2018-06-05T14:23:49.194Z,28.24
2018-06-05T14:26:17.910Z,28.49
2018-06-05T14:28:46.709Z,28.82
2018-06-05T14:31:15.498Z,28.97
2018-06-05T14:33:44.279Z,29.18
2018-06-05T14:36:13.065Z,28.84
2018-06-05T14:38:41.804Z,29.06
2018-06-05T14:41:10.547Z,29.28
2018-06-05T14:43:39.245Z,29.28
2018-06-05T14:46:08.058Z,29.12
2018-06-05T14:48:36.941Z,29.27
2018-06-05T14:51:05.645Z,29.13
2018-06-05T14:53:34.362Z,29.18
2018-06-05T14:56:03.275Z,29.48
2018-06-05T14:58:31.992Z,29.68
2018-06-05T15:01:00.598Z,29.23
2018-06-05T15:03:29.149Z,29.14
2018-06-05T15:05:57.964Z,28.94
2018-06-05T15:08:26.731Z,28.97
2018-06-05T15:10:55.615Z,28.93
2018-06-05T15:13:24.581Z,28.95
2018-06-05T15:15:53.388Z,29.32
2018-06-05T15:18:22.029Z,29.39
2018-06-05T15:20:50.732Z,29.66
2018-06-05T15:23:19.444Z,29.84
2018-06-05T15:25:48.203Z,30.03
2018-06-05T15:28:17.042Z,29.94
2018-06-05T15:30:45.854Z,29.75
2018-06-05T15:33:14.996Z,29.72
2018-06-05T15:35:43.772Z,29.31
2018-06-05T15:38:12.516Z,29.29
2018-06-05T15:40:41.324Z,29.37
2018-06-05T15:43:10.104Z,29.41
2018-06-05T15:45:38.800Z,29.46
2018-06-05T15:48:07.631Z,29.33
2018-06-05T15:50:36.367Z,29.32
2018-06-05T15:53:05.083Z,29.35
2018-06-05T15:55:33.849Z,29.24
2018-06-05T15:58:02.746Z,28.85
2018-06-05T16:00:31.304Z,28.65
2018-06-05T16:03:00.092Z,28.50
2018-06-05T16:05:28.934Z,28.42
2018-06-05T16:07:57.765Z,28.28
2018-06-05T16:10:26.568Z,28.14
2018-06-05T16:12:55.495Z,27.99
2018-06-05T16:15:24.364Z,28.01
2018-06-05T16:17:53.119Z,28.06
2018-06-05T16:20:21.899Z,28.19
2018-06-05T16:22:50.770Z,28.22
2018-06-05T16:25:19.465Z,28.23
2018-06-05T16:27:47.989Z,28.35
2018-06-05T16:30:16.469Z,28.42
2018-06-05T16:32:44.989Z,28.44
2018-06-05T16:35:13.564Z,28.38
2018-06-05T16:37:42.101Z,28.24
2018-06-05T16:40:10.648Z,28.29
2018-06-05T16:42:39.215Z,28.33
2018-06-05T16:45:07.725Z,28.41
2018-06-05T16:47:36.279Z,28.50
2018-06-05T16:50:04.808Z,28.23
2018-06-05T16:52:33.378Z,28.27
2018-06-05T16:55:01.908Z,28.40
2018-06-05T16:57:30.444Z,28.47
2018-06-05T16:59:58.948Z,28.30
2018-06-05T17:02:27.532Z,28.18
2018-06-05T17:04:56.038Z,28.13
2018-06-05T17:07:24.569Z,28.09
2018-06-05T17:09:53.099Z,28.07
2018-06-05T17:12:21.672Z,28.05
2018-06-05T17:14:50.205Z,28.01
2018-06-05T17:17:18.734Z,28.02
2018-06-05T17:19:47.337Z,28.00
2018-06-05T17:22:15.898Z,27.91
2018-06-05T17:24:44.417Z,27.93
2018-06-05T17:27:12.923Z,27.93
2018-06-05T17:29:41.501Z,27.91
2018-06-05T17:32:10.005Z,27.93
2018-06-05T17:34:38.604Z,27.80
2018-06-05T17:37:07.133Z,27.78
2018-06-05T17:39:35.687Z,27.69
2018-06-05T17:42:04.453Z,27.63
2018-06-05T17:44:33.164Z,27.47
2018-06-05T17:47:01.757Z,27.36
2018-06-05T17:49:30.333Z,27.25
2018-06-05T17:51:58.896Z,27.26
2018-06-05T17:54:28.016Z,27.19
2018-06-05T17:56:56.520Z,27.05
2018-06-05T17:59:25.039Z,27.00
2018-06-05T18:01:53.649Z,26.90
2018-06-05T18:04:22.202Z,26.77
2018-06-05T18:06:50.705Z,26.73
2018-06-05T18:09:19.243Z,26.63
2018-06-05T18:11:47.748Z,26.47
2018-06-05T18:14:16.257Z,26.37
2018-06-05T18:16:44.781Z,26.15
2018-06-05T18:19:13.281Z,26.00
2018-06-05T18:21:41.790Z,26.05
2018-06-05T18:24:10.300Z,25.90
2018-06-05T18:26:38.869Z,25.88
2018-06-05T18:29:07.343Z,25.80
2018-06-05T18:31:35.871Z,25.72
2018-06-05T18:34:04.377Z,25.70
2018-06-05T18:36:32.874Z,25.51
2018-06-05T18:39:01.377Z,25.49
2018-06-05T18:41:29.909Z,25.24
2018-06-05T18:43:58.438Z,25.25
2018-06-05T18:46:26.983Z,25.35
2018-06-05T18:48:55.487Z,25.23
2018-06-05T18:51:23.991Z,25.16
2018-06-05T18:53:52.502Z,24.91
2018-06-05T18:56:21.030Z,24.79
2018-06-05T18:58:49.599Z,24.82
2018-06-05T19:01:18.150Z,24.68
2018-06-05T19:03:46.648Z,24.66
2018-06-05T19:06:15.206Z,24.64
2018-06-05T19:08:43.718Z,24.62
2018-06-05T19:11:12.209Z,24.55
2018-06-05T19:13:40.734Z,24.47
2018-06-05T19:16:09.267Z,24.53
2018-06-05T19:18:37.793Z,24.40
2018-06-05T19:21:06.354Z,24.33
2018-06-05T19:23:34.878Z,24.24
2018-06-05T19:26:03.382Z,24.06
2018-06-05T19:28:31.888Z,23.93
2018-06-05T19:31:00.392Z,24.00
2018-06-05T19:33:28.914Z,23.88
2018-06-05T19:35:57.432Z,23.91
2018-06-05T19:38:25.924Z,23.82
2018-06-05T19:40:54.406Z,23.73
2018-06-05T19:43:22.915Z,23.69
2018-06-05T19:45:51.410Z,23.77
2018-06-05T19:48:19.921Z,23.68
2018-06-05T19:50:48.452Z,23.57
2018-06-05T19:53:16.992Z,23.67
2018-06-05T19:55:45.542Z,23.61
2018-06-05T19:58:14.242Z,23.58
2018-06-05T20:00:42.789Z,23.47
2018-06-05T20:03:11.345Z,23.48
2018-06-05T20:05:39.898Z,23.45
2018-06-05T20:08:08.436Z,23.38
2018-06-05T20:10:36.956Z,23.38
2018-06-05T20:13:05.443Z,23.29
2018-06-05T20:15:33.956Z,23.20
2018-06-05T20:18:02.461Z,23.19
2018-06-05T20:20:30.986Z,23.21
2018-06-05T20:22:59.479Z,23.12
2018-06-05T20:25:28.115Z,23.03
2018-06-05T20:27:56.589Z,22.97
2018-06-05T20:30:25.129Z,22.94
2018-06-05T20:32:53.660Z,22.88
2018-06-05T20:35:22.880Z,22.81
2018-06-05T20:37:51.917Z,22.68
2018-06-05T20:40:20.510Z,22.60
2018-06-05T20:42:49.129Z,22.49
2018-06-05T20:45:17.713Z,22.35
2018-06-05T20:47:46.308Z,22.24
2018-06-05T20:50:14.862Z,22.16
2018-06-05T20:52:43.408Z,22.14
2018-06-05T20:55:11.933Z,22.07
2018-06-05T20:57:40.499Z,21.99
2018-06-05T21:00:09.962Z,22.04
2018-06-05T21:02:38.493Z,21.92
2018-06-05T21:05:06.997Z,21.91
2018-06-05T21:07:35.709Z,21.92
2018-06-05T21:10:04.309Z,21.79
2018-06-05T21:12:32.846Z,21.77
2018-06-05T21:15:01.355Z,21.76
2018-06-05T21:17:29.909Z,21.82
2018-06-05T21:19:58.435Z,21.65
2018-06-05T21:22:26.968Z,21.69
2018-06-05T21:24:55.479Z,21.61
2018-06-05T21:27:25.063Z,21.59
2018-06-05T21:29:54.267Z,21.59
2018-06-05T21:32:23.440Z,21.66
2018-06-05T21:34:53.997Z,21.58
2018-06-05T21:37:22.808Z,21.56
2018-06-05T21:39:51.388Z,21.52
2018-06-05T21:42:20.148Z,21.44
2018-06-05T21:44:49.712Z,21.44
2018-06-05T21:47:18.403Z,21.42
2018-06-05T21:49:47.008Z,21.44
2018-06-05T21:52:15.764Z,21.42
2018-06-05T21:54:44.312Z,21.33
2018-06-05T21:57:12.969Z,21.31
2018-06-05T21:59:41.553Z,21.33
2018-06-05T22:02:10.154Z,21.20
2018-06-05T22:04:38.755Z,21.24
2018-06-05T22:07:07.444Z,21.20
2018-06-05T22:09:36.056Z,21.14
2018-06-05T22:12:04.621Z,21.01
2018-06-05T22:14:33.269Z,20.41
2018-06-05T22:17:01.990Z,20.90
2018-06-05T22:19:30.603Z,20.79
2018-06-05T22:21:59.255Z,20.88
2018-06-05T22:24:27.965Z,20.91
2018-06-05T22:26:56.714Z,20.77
2018-06-05T22:29:25.316Z,20.68
2018-06-05T22:31:55.016Z,20.72
2018-06-05T22:34:23.649Z,20.59
2018-06-05T22:36:52.394Z,20.54
2018-06-05T22:39:21.017Z,20.57
2018-06-05T22:41:49.701Z,20.50
2018-06-05T22:44:18.317Z,20.44
2018-06-05T22:46:47.153Z,20.43
2018-06-05T22:49:15.770Z,20.39
2018-06-05T22:51:44.417Z,20.41
2018-06-05T22:54:13.102Z,20.42
2018-06-05T22:56:41.785Z,20.33
2018-06-05T22:59:10.408Z,20.27
2018-06-05T23:01:39.275Z,20.28
2018-06-05T23:04:07.969Z,20.25
2018-06-05T23:06:36.625Z,20.15
2018-06-05T23:09:07.345Z,20.13
2018-06-05T23:11:36.332Z,20.05
2018-06-05T23:14:04.972Z,19.96
2018-06-05T23:16:33.681Z,19.94
2018-06-05T23:19:02.388Z,20.02
2018-06-05T23:21:31.084Z,19.95
2018-06-05T23:23:59.749Z,19.96
2018-06-05T23:26:28.379Z,19.86
2018-06-05T23:28:57.064Z,19.78
2018-06-05T23:31:25.647Z,19.68
2018-06-05T23:33:54.393Z,19.64
2018-06-05T23:36:23.094Z,19.66
2018-06-05T23:38:51.672Z,19.62
2018-06-05T23:41:20.346Z,19.57
2018-06-05T23:43:49.016Z,19.49
2018-06-05T23:46:17.561Z,19.44
2018-06-05T23:48:46.142Z,19.55
2018-06-05T23:51:14.712Z,19.63
2018-06-05T23:53:43.426Z,19.64
2018-06-05T23:56:12.106Z,19.59
2018-06-05T23:58:40.747Z,19.44
